Time;durP1;ratioP1;P1;durP2;ratioP2;P2;SDS_P1;SDS_P2;PMS_P1;PMS_P2;Temp;Humidity;BMP_temperature;BMP_pressure;BME280_temperature;BME280_humidity;BME280_pressure;Samples;Min_cycle;Max_cycle;Signal;HPM_P1;HPM_P2
2022/12/09 00:00:50;;;;;;;575.22;68.65;;;;;;;6.39;99.08;97350.06;5092877;28;20389;-47
2022/12/09 00:03:16;;;;;;;86.68;43.13;;;;;;;6.37;99.02;97346.88;5092942;28;20122;-46
2022/12/09 00:05:41;;;;;;;86.68;40.75;;;;;;;6.32;98.45;97339.69;5091765;28;20027;-46
2022/12/09 00:08:07;;;;;;;152.00;47.38;;;;;;;6.19;98.25;97339.72;5092769;28;20034;-46
2022/12/09 00:10:32;;;;;;;360.60;66.18;;;;;;;6.13;98.54;97327.50;5091414;28;20020;-46
2022/12/09 00:12:58;;;;;;;378.90;55.67;;;;;;;6.18;98.84;97320.69;5092282;28;20039;-46
2022/12/09 00:15:23;;;;;;;164.75;43.25;;;;;;;6.11;98.66;97308.69;5091260;28;20122;-46
2022/12/09 00:17:49;;;;;;;1437.57;117.35;;;;;;;6.16;99.61;97314.88;5091282;28;20028;-46
2022/12/09 00:20:15;;;;;;;242.10;47.35;;;;;;;6.12;99.11;97308.47;5091025;28;20048;-46
2022/12/09 00:22:40;;;;;;;182.45;42.83;;;;;;;6.06;99.10;97301.50;5091153;28;20016;-46
2022/12/09 00:25:06;;;;;;;677.58;73.43;;;;;;;6.01;99.27;97296.09;5091170;28;20032;-46
2022/12/09 00:27:32;;;;;;;231.80;47.80;;;;;;;6.02;99.18;97289.06;5092364;28;20021;-46
2022/12/09 00:29:57;;;;;;;256.75;49.85;;;;;;;6.11;99.61;97277.44;5092384;28;20062;-46
2022/12/09 00:32:23;;;;;;;198.25;43.60;;;;;;;6.14;99.57;97270.00;5092312;28;20060;-46
2022/12/09 00:34:48;;;;;;;118.28;41.20;;;;;;;6.09;99.86;97269.03;5092260;28;20043;-46
2022/12/09 00:37:14;;;;;;;448.95;62.30;;;;;;;6.19;100.00;97264.16;5091006;28;20526;-46
2022/12/09 00:39:40;;;;;;;1081.20;96.55;;;;;;;6.23;100.00;97267.16;5090877;28;20069;-46
2022/12/09 00:42:05;;;;;;;92.05;43.15;;;;;;;6.26;100.00;97262.34;5092205;28;20016;-46
2022/12/09 00:44:31;;;;;;;137.23;42.60;;;;;;;6.24;100.00;97266.16;5092149;28;20028;-46
2022/12/09 00:46:56;;;;;;;165.52;40.85;;;;;;;6.14;100.00;97261.41;5092171;28;20023;-46
2022/12/09 00:49:22;;;;;;;61.08;34.38;;;;;;;5.92;99.49;97256.44;5090697;28;20553;-46
2022/12/09 00:51:47;;;;;;;82.40;36.92;;;;;;;5.83;99.12;97259.47;5092014;28;20020;-46
2022/12/09 00:54:13;;;;;;;107.53;36.53;;;;;;;5.67;98.97;97258.09;5090775;28;20028;-46
2022/12/09 00:56:38;;;;;;;66.38;35.42;;;;;;;5.60;98.49;97250.31;5090625;28;20053;-46
2022/12/09 00:59:04;;;;;;;75.45;42.78;;;;;;;5.62;99.40;97240.50;5092052;28;20107;-46
2022/12/09 01:01:30;;;;;;;99.63;37.35;;;;;;;5.85;100.00;97236.63;5090564;28;20024;-46
2022/12/09 01:03:56;;;;;;;325.10;49.58;;;;;;;5.78;99.38;97239.25;5091907;28;20023;-46
2022/12/09 01:06:23;;;;;;;92.75;51.80;;;;;;;5.72;100.00;97229.69;5091946;28;20531;-45
2022/12/09 01:08:49;;;;;;;77.63;40.42;;;;;;;5.89;100.00;97232.59;5090526;28;20085;-45
2022/12/09 01:11:27;;;;;;;69.78;36.97;;;;;;;5.73;99.51;97232.06;5090478;28;20021;-46
2022/12/09 01:13:56;;;;;;;89.63;38.28;;;;;;;5.32;98.89;97233.16;5090540;28;20111;-46
2022/12/09 01:16:24;;;;;;;68.68;35.75;;;;;;;5.27;99.30;97229.56;5091693;28;20024;-46
2022/12/09 01:18:52;;;;;;;72.50;37.63;;;;;;;5.29;99.88;97228.38;5091546;28;20139;-46
2022/12/09 01:21:18;;;;;;;65.68;39.97;;;;;;;5.40;100.00;97224.34;5090425;28;20482;-46
2022/12/09 01:23:44;;;;;;;64.93;38.03;;;;;;;5.53;100.00;97226.94;5090477;28;20023;-46
2022/12/09 01:26:10;;;;;;;82.95;44.42;;;;;;;5.76;100.00;97226.44;5092379;28;20028;-46
2022/12/09 01:28:38;;;;;;;74.43;44.05;;;;;;;5.86;100.00;97225.22;5094617;28;20020;-46
2022/12/09 01:31:14;;;;;;;67.25;38.72;;;;;;;5.76;100.00;97210.84;5096137;28;20028;-46
2022/12/09 01:33:40;;;;;;;59.78;34.55;;;;;;;5.78;100.00;97215.84;5094505;28;20102;-46
2022/12/09 01:36:12;;;;;;;78.65;36.13;;;;;;;5.79;100.00;97213.03;5095781;28;20107;-46
2022/12/09 01:38:38;;;;;;;61.95;34.85;;;;;;;5.88;100.00;97207.59;5094519;28;20116;-46
2022/12/09 01:41:04;;;;;;;54.03;29.75;;;;;;;5.91;100.00;97202.75;5094344;28;20123;-46
2022/12/09 01:43:29;;;;;;;45.17;27.10;;;;;;;5.75;100.00;97198.00;5095635;28;20022;-46
2022/12/09 01:45:55;;;;;;;267.23;44.40;;;;;;;5.59;100.00;97204.47;5095575;28;20057;-46
2022/12/09 01:48:26;;;;;;;52.28;27.85;;;;;;;5.48;100.00;97197.31;5077219;28;20397;-46
2022/12/09 01:51:00;;;;;;;64.68;34.40;;;;;;;5.49;100.00;97189.28;5094181;28;20502;-46
2022/12/09 01:53:30;;;;;;;58.20;33.00;;;;;;;5.55;100.00;97198.91;5094154;28;20554;-46
2022/12/09 01:56:00;;;;;;;65.68;35.67;;;;;;;5.66;100.00;97205.25;5095379;28;20029;-46
2022/12/09 01:58:26;;;;;;;53.92;31.50;;;;;;;5.64;100.00;97212.47;5095359;28;20101;-46
2022/12/09 02:00:52;;;;;;;52.35;30.58;;;;;;;5.61;100.00;97197.25;5093940;28;20035;-46
2022/12/09 02:03:17;;;;;;;109.82;37.63;;;;;;;5.57;100.00;97199.50;5093866;28;20024;-46
2022/12/09 02:05:43;;;;;;;175.88;38.63;;;;;;;5.60;100.00;97203.47;5095204;28;20031;-46
2022/12/09 02:08:15;;;;;;;108.50;36.60;;;;;;;5.60;100.00;97199.06;5095033;28;20020;-46
2022/12/09 02:11:03;;;;;;;78.00;34.85;;;;;;;5.73;100.00;97205.22;5095346;28;20028;-46
2022/12/09 02:13:58;;;;;;;54.75;29.70;;;;;;;5.77;100.00;97204.59;5095075;28;20032;-46
2022/12/09 02:16:27;;;;;;;68.85;30.52;;;;;;;5.78;100.00;97208.03;5095001;28;20028;-46
2022/12/09 02:19:05;;;;;;;79.47;28.55;;;;;;;5.69;100.00;97204.03;5094298;28;20440;-46
2022/12/09 02:21:47;;;;;;;49.67;26.88;;;;;;;5.69;100.00;97198.84;5092357;28;20024;-46
2022/12/09 02:24:21;;;;;;;48.47;26.63;;;;;;;5.73;100.00;97179.19;5093662;28;20165;-46
2022/12/09 02:26:58;;;;;;;44.60;25.50;;;;;;;5.79;100.00;97181.81;5093678;28;20103;-46
2022/12/09 02:29:42;;;;;;;129.40;32.28;;;;;;;5.80;100.00;97185.97;5092306;28;20039;-46
2022/12/09 02:32:45;;;;;;;59.80;23.65;;;;;;;5.54;100.00;97168.66;5093525;28;20398;-46
2022/12/09 02:35:19;;;;;;;50.03;22.88;;;;;;;5.50;100.00;97167.47;5093387;28;20024;-46
2022/12/09 02:38:02;;;;;;;47.65;25.70;;;;;;;5.53;100.00;97168.88;5093100;28;20043;-46
2022/12/09 02:40:37;;;;;;;44.30;23.33;;;;;;;5.54;100.00;97160.06;5092030;28;20064;-46
2022/12/09 02:43:06;;;;;;;161.45;30.70;;;;;;;5.43;100.00;97169.28;5093407;28;20031;-46
2022/12/09 02:45:34;;;;;;;103.95;28.95;;;;;;;5.37;100.00;97170.94;5093171;28;20029;-46
2022/12/09 02:48:01;;;;;;;141.95;41.92;;;;;;;5.32;100.00;97152.53;5093416;28;20078;-46
2022/12/09 02:50:33;;;;;;;83.90;47.50;;;;;;;5.40;100.00;97139.28;5091841;28;20028;-46
2022/12/09 02:53:03;;;;;;;64.85;35.10;;;;;;;5.54;100.00;97147.06;5093201;28;20039;-46
2022/12/09 02:55:31;;;;;;;83.20;29.10;;;;;;;5.56;100.00;97150.25;5091815;28;20024;-46
2022/12/09 02:58:00;;;;;;;98.75;25.55;;;;;;;5.64;100.00;97154.44;5091806;28;20024;-46
2022/12/09 03:00:26;;;;;;;170.63;79.30;;;;;;;5.56;100.00;97155.44;5092917;28;20020;-46
2022/12/09 03:03:00;;;;;;;102.25;33.65;;;;;;;5.60;100.00;97154.81;5091685;28;20028;-46
2022/12/09 03:05:32;;;;;;;116.28;65.05;;;;;;;5.61;100.00;97140.00;5091668;28;20043;-46
2022/12/09 03:08:01;;;;;;;48.72;24.17;;;;;;;5.71;100.00;97134.38;5092893;28;20020;-46
2022/12/09 03:10:38;;;;;;;109.38;21.83;;;;;;;5.74;100.00;97133.97;5092869;28;20028;-46
2022/12/09 03:13:11;;;;;;;76.05;16.77;;;;;;;5.35;100.00;97128.72;5091547;28;20124;-45
2022/12/09 03:15:40;;;;;;;24.60;14.90;;;;;;;5.02;100.00;97125.41;5092887;28;20036;-46
2022/12/09 03:20:53;;;;;;;40.63;19.58;;;;;;;4.99;100.00;97130.00;5109857;27;20404;-47
2022/12/09 03:23:23;;;;;;;119.20;24.60;;;;;;;5.17;100.00;97128.53;5108382;28;20119;-47
2022/12/09 03:25:52;;;;;;;36.25;20.17;;;;;;;5.31;100.00;97124.09;5109689;28;20473;-47
2022/12/09 03:28:27;;;;;;;62.90;24.38;;;;;;;5.50;100.00;97119.84;5109813;28;20035;-47
2022/12/09 03:30:55;;;;;;;34.72;16.85;;;;;;;5.37;100.00;97111.09;5109827;28;20397;-47
2022/12/09 03:33:23;;;;;;;72.90;25.98;;;;;;;5.26;100.00;97121.34;5109752;28;20443;-46
2022/12/09 03:35:53;;;;;;;49.13;22.17;;;;;;;5.49;100.00;97128.66;5091187;28;20032;-47
2022/12/09 03:38:21;;;;;;;42.88;25.33;;;;;;;5.57;100.00;97128.41;5109451;28;20048;-47
2022/12/09 03:40:52;;;;;;;42.67;21.48;;;;;;;5.70;100.00;97120.56;5108038;28;20489;-47
2022/12/09 03:43:25;;;;;;;43.28;22.10;;;;;;;5.74;100.00;97121.72;5109395;28;20447;-47
2022/12/09 03:45:53;;;;;;;152.10;28.75;;;;;;;5.73;100.00;97114.91;5109190;28;20047;-47
2022/12/09 03:48:20;;;;;;;45.13;24.17;;;;;;;5.81;100.00;97111.28;5091127;28;20043;-47
2022/12/09 03:50:56;;;;;;;161.15;29.85;;;;;;;5.85;100.00;97109.84;5107817;28;20111;-47
2022/12/09 03:53:30;;;;;;;36.13;20.90;;;;;;;5.77;100.00;97107.50;5109157;28;20043;-47
2022/12/09 03:56:09;;;;;;;36.00;20.65;;;;;;;5.83;100.00;97095.47;5109058;28;20046;-47
2022/12/09 03:58:40;;;;;;;83.85;20.80;;;;;;;5.89;100.00;97090.22;5109218;28;20397;-47
2022/12/09 04:01:06;;;;;;;225.00;29.55;;;;;;;5.79;100.00;97088.09;5107613;28;20089;-47
2022/12/09 04:03:34;;;;;;;102.50;24.67;;;;;;;5.80;100.00;97089.66;5107578;28;20042;-47
2022/12/09 04:06:00;;;;;;;34.38;18.88;;;;;;;5.92;100.00;97089.00;5108875;28;20034;-47
2022/12/09 04:08:25;;;;;;;330.77;35.45;;;;;;;5.81;100.00;97090.47;5107445;28;20024;-47
2022/12/09 04:10:51;;;;;;;32.20;13.77;;;;;;;5.40;100.00;97089.84;5107388;28;20028;-47
2022/12/09 04:13:17;;;;;;;40.67;15.90;;;;;;;4.97;100.00;97087.81;5108741;28;20098;-47
2022/12/09 04:15:42;;;;;;;27.65;15.00;;;;;;;4.88;100.00;97088.22;5108621;28;20105;-47
2022/12/09 04:18:08;;;;;;;39.22;18.50;;;;;;;4.98;100.00;97076.38;5107296;28;20027;-46
2022/12/09 04:20:33;;;;;;;40.17;19.58;;;;;;;5.28;100.00;97067.31;5106903;28;20052;-47
2022/12/09 04:22:59;;;;;;;33.67;18.30;;;;;;;5.36;100.00;97064.47;5107234;28;20016;-47
2022/12/09 04:25:25;;;;;;;73.68;20.25;;;;;;;5.42;100.00;97070.66;5107160;28;20482;-47
2022/12/09 04:27:50;;;;;;;116.63;21.58;;;;;;;5.49;100.00;97071.41;5108457;28;20371;-47
2022/12/09 04:30:16;;;;;;;37.42;18.38;;;;;;;5.48;100.00;97070.63;5105519;28;20099;-47
2022/12/09 04:32:42;;;;;;;25.17;15.00;;;;;;;5.47;100.00;97066.41;5093460;28;20066;-47
2022/12/09 04:35:08;;;;;;;27.05;14.32;;;;;;;5.39;100.00;97074.44;5076531;28;20448;-47
2022/12/09 04:37:36;;;;;;;42.13;16.85;;;;;;;5.35;100.00;97081.06;5093411;28;20016;-47
2022/12/09 04:40:04;;;;;;;34.00;16.33;;;;;;;5.45;100.00;97083.22;5093595;28;20847;-47
2022/12/09 04:42:29;;;;;;;49.80;14.90;;;;;;;5.48;100.00;97080.22;5094604;28;20103;-47
2022/12/09 04:44:55;;;;;;;24.73;12.55;;;;;;;5.39;100.00;97085.66;5093236;28;20782;-47
2022/12/09 04:47:20;;;;;;;23.95;13.25;;;;;;;5.40;100.00;97082.06;5094441;28;20016;-47
2022/12/09 04:49:46;;;;;;;89.65;17.52;;;;;;;5.42;100.00;97083.66;5094475;28;20110;-47
2022/12/09 04:52:11;;;;;;;22.20;13.38;;;;;;;5.28;100.00;97082.91;5094330;28;20016;-47
2022/12/09 04:54:37;;;;;;;17.52;11.10;;;;;;;5.32;100.00;97074.47;5093081;28;20118;-47
2022/12/09 04:57:02;;;;;;;17.20;10.63;;;;;;;5.25;100.00;97068.53;5094238;28;20050;-47
2022/12/09 04:59:30;;;;;;;18.75;11.20;;;;;;;5.32;100.00;97068.50;5092873;28;20032;-47
2022/12/09 05:01:55;;;;;;;16.00;9.88;;;;;;;5.50;100.00;97076.41;5092922;28;20020;-47
2022/12/09 05:04:21;;;;;;;63.60;12.48;;;;;;;5.52;100.00;97071.78;5094079;28;20085;-47
2022/12/09 05:06:46;;;;;;;51.42;12.40;;;;;;;5.50;100.00;97066.00;5094135;28;20020;-47
2022/12/09 05:09:12;;;;;;;16.67;10.98;;;;;;;5.48;100.00;97073.22;5094078;28;20024;-47
2022/12/09 05:11:38;;;;;;;22.05;11.68;;;;;;;5.36;100.00;97074.88;5092708;28;20028;-48
2022/12/09 05:14:03;;;;;;;20.52;12.35;;;;;;;5.28;100.00;97070.69;5093970;28;20111;-48
2022/12/09 05:16:29;;;;;;;21.15;12.85;;;;;;;5.53;100.00;97080.38;5092605;28;20028;-48
2022/12/09 05:18:55;;;;;;;21.70;12.02;;;;;;;5.54;100.00;97076.81;5092254;28;20456;-48
2022/12/09 05:21:20;;;;;;;21.25;11.85;;;;;;;5.52;100.00;97082.19;5092587;28;20062;-48
2022/12/09 05:23:47;;;;;;;32.40;12.25;;;;;;;5.48;100.00;97088.03;5094094;28;20028;-47
2022/12/09 05:26:15;;;;;;;15.48;10.75;;;;;;;5.24;100.00;97079.91;5093738;28;20035;-48
2022/12/09 05:28:41;;;;;;;17.77;10.52;;;;;;;5.12;100.00;97082.34;5092528;28;20496;-48
2022/12/09 05:31:10;;;;;;;16.75;11.02;;;;;;;5.06;100.00;97090.97;5092306;28;20060;-47
2022/12/09 05:33:36;;;;;;;23.50;13.65;;;;;;;5.02;100.00;97089.78;5093602;28;20509;-47
2022/12/09 05:36:02;;;;;;;20.17;12.57;;;;;;;4.98;100.00;97086.00;5092215;28;20050;-47
2022/12/09 05:38:29;;;;;;;16.30;11.35;;;;;;;4.97;100.00;97084.38;5092136;28;20509;-47
2022/12/09 05:40:58;;;;;;;19.00;11.20;;;;;;;4.97;100.00;97084.38;5093498;28;20032;-48
2022/12/09 05:43:24;;;;;;;53.58;14.82;;;;;;;4.99;100.00;97079.81;5092396;28;20040;-47
2022/12/09 05:45:50;;;;;;;17.55;11.52;;;;;;;4.95;100.00;97094.19;5093365;28;20066;-47
2022/12/09 05:48:15;;;;;;;16.17;10.30;;;;;;;4.90;100.00;97094.03;5092025;28;20052;-47
2022/12/09 05:50:41;;;;;;;19.45;11.70;;;;;;;4.98;100.00;97099.00;5092191;28;20127;-48
2022/12/09 05:53:06;;;;;;;18.83;11.27;;;;;;;5.09;100.00;97100.97;5091837;28;20020;-47
2022/12/09 05:55:32;;;;;;;43.05;13.23;;;;;;;5.04;100.00;97098.19;5093198;28;20030;-48
2022/12/09 05:57:57;;;;;;;15.38;9.80;;;;;;;5.02;100.00;97094.97;5093111;28;20016;-48
2022/12/09 06:00:23;;;;;;;25.10;11.30;;;;;;;5.04;100.00;97100.00;5092929;28;20032;-48
2022/12/09 06:02:49;;;;;;;20.50;13.43;;;;;;;5.17;100.00;97099.94;5093072;28;20070;-48
2022/12/09 06:05:14;;;;;;;18.88;10.05;;;;;;;5.20;100.00;97096.94;5091739;28;20039;-48
2022/12/09 06:07:40;;;;;;;15.40;9.48;;;;;;;5.19;100.00;97096.16;5091919;28;20028;-48
2022/12/09 06:10:06;;;;;;;47.58;10.70;;;;;;;5.19;100.00;97095.31;5091577;28;20031;-46
2022/12/09 06:12:32;;;;;;;13.30;8.10;;;;;;;5.23;100.00;97101.72;5093129;28;20020;-45
2022/12/09 06:14:58;;;;;;;16.00;8.00;;;;;;;5.22;100.00;97099.34;5092838;28;20565;-46
2022/12/09 06:17:23;;;;;;;15.23;10.82;;;;;;;5.24;100.00;97092.13;5092784;28;20026;-48
2022/12/09 06:19:49;;;;;;;13.18;8.88;;;;;;;5.34;100.00;97098.47;5092297;28;20040;-48
2022/12/09 06:22:14;;;;;;;19.20;13.30;;;;;;;5.37;100.00;97098.09;5091387;28;20028;-48
2022/12/09 06:24:40;;;;;;;24.55;16.60;;;;;;;5.31;100.00;97098.91;5091328;28;20035;-48
2022/12/09 06:27:05;;;;;;;14.70;9.93;;;;;;;5.22;100.00;97100.13;5091414;28;20012;-48
2022/12/09 06:29:31;;;;;;;15.63;9.52;;;;;;;5.13;100.00;97103.94;5092639;28;20075;-45
2022/12/09 06:31:57;;;;;;;17.55;10.93;;;;;;;5.16;100.00;97104.34;5091229;28;20394;-44
2022/12/09 06:34:22;;;;;;;23.92;10.80;;;;;;;5.24;100.00;97097.34;5091256;28;20027;-45
2022/12/09 06:36:48;;;;;;;21.35;10.57;;;;;;;5.11;100.00;97098.16;5092478;28;20517;-45
2022/12/09 06:39:14;;;;;;;14.70;10.07;;;;;;;5.06;100.00;97100.59;5091138;28;20024;-45
2022/12/09 06:41:40;;;;;;;15.88;9.90;;;;;;;5.00;100.00;97099.59;5091080;28;20099;-45
2022/12/09 06:44:07;;;;;;;24.75;10.95;;;;;;;4.97;100.00;97092.19;5092265;28;20020;-45
2022/12/09 06:46:33;;;;;;;31.17;10.20;;;;;;;4.97;100.00;97090.41;5092251;28;20077;-45
2022/12/09 06:48:59;;;;;;;15.27;10.30;;;;;;;4.89;100.00;97095.00;5092249;28;20057;-45
2022/12/09 06:51:25;;;;;;;42.28;13.75;;;;;;;4.88;100.00;97099.41;5108007;28;20035;-45
2022/12/09 06:53:51;;;;;;;21.13;14.25;;;;;;;4.94;100.00;97092.59;5091911;28;20039;-45
2022/12/09 06:56:17;;;;;;;19.58;12.10;;;;;;;4.99;100.00;97093.59;5092137;28;20035;-45
2022/12/09 06:58:44;;;;;;;28.25;13.68;;;;;;;5.05;100.00;97098.97;5092019;28;20028;-45
2022/12/09 07:01:13;;;;;;;45.20;16.55;;;;;;;5.07;100.00;97087.38;5092028;28;20102;-45
2022/12/09 07:03:40;;;;;;;24.75;13.23;;;;;;;5.07;100.00;97092.59;5092073;28;20107;-45
2022/12/09 07:06:06;;;;;;;44.15;14.65;;;;;;;5.08;100.00;97095.97;5090689;28;20401;-45
2022/12/09 07:08:32;;;;;;;20.55;14.07;;;;;;;5.17;100.00;97095.56;5090728;28;20556;-45
2022/12/09 07:10:58;;;;;;;31.15;14.70;;;;;;;5.23;100.00;97096.50;5091920;28;20494;-47
2022/12/09 07:13:24;;;;;;;19.67;12.18;;;;;;;5.20;100.00;97091.75;5091931;28;20024;-47
2022/12/09 07:15:49;;;;;;;21.23;12.13;;;;;;;5.15;100.00;97094.13;5090610;28;20020;-47
2022/12/09 07:18:15;;;;;;;19.52;12.60;;;;;;;5.09;100.00;97100.16;5090566;28;20472;-47
2022/12/09 07:20:41;;;;;;;18.77;11.65;;;;;;;5.07;100.00;97104.75;5090240;28;20125;-47
2022/12/09 07:23:06;;;;;;;25.45;12.77;;;;;;;5.16;100.00;97100.94;5090538;28;20036;-47
2022/12/09 07:25:32;;;;;;;23.27;14.27;;;;;;;5.31;100.00;97104.13;5091828;28;20504;-47
2022/12/09 07:27:57;;;;;;;21.67;11.70;;;;;;;5.37;100.00;97092.88;5090603;28;20055;-48
2022/12/09 07:30:23;;;;;;;26.30;12.15;;;;;;;5.30;100.00;97099.91;5090419;28;20024;-48
2022/12/09 07:32:49;;;;;;;96.97;16.23;;;;;;;5.24;100.00;97103.31;5091968;28;20054;-47
2022/12/09 07:35:14;;;;;;;26.15;12.52;;;;;;;5.23;100.00;97111.31;5090530;28;20025;-47
2022/12/09 07:37:40;;;;;;;21.27;12.80;;;;;;;5.25;100.00;97104.94;5091726;28;20024;-48
2022/12/09 07:40:06;;;;;;;15.13;9.30;;;;;;;5.25;100.00;97101.50;5091566;28;20088;-47
2022/12/09 07:42:31;;;;;;;14.23;10.00;;;;;;;5.20;100.00;97112.53;5090326;28;20055;-47
2022/12/09 07:44:57;;;;;;;14.82;9.25;;;;;;;5.25;100.00;97115.34;5090276;28;20099;-48
2022/12/09 07:47:23;;;;;;;93.97;15.55;;;;;;;5.19;100.00;97110.94;5090310;28;20397;-48
2022/12/09 07:49:48;;;;;;;26.45;9.55;;;;;;;5.07;100.00;97113.38;5090592;28;20036;-48
2022/12/09 07:52:14;;;;;;;10.95;8.45;;;;;;;4.93;100.00;97114.38;5091785;28;20111;-48
2022/12/09 07:54:39;;;;;;;10.48;6.95;;;;;;;4.97;100.00;97126.81;5090296;28;20040;-47
2022/12/09 07:57:05;;;;;;;23.70;10.18;;;;;;;5.07;100.00;97129.00;5090287;28;20025;-47
2022/12/09 07:59:30;;;;;;;16.95;10.48;;;;;;;5.15;100.00;97123.56;5091438;28;20059;-45
2022/12/09 08:01:56;;;;;;;15.93;10.80;;;;;;;5.24;100.00;97125.94;5091395;28;20555;-45
2022/12/09 08:04:22;;;;;;;22.25;10.45;;;;;;;5.28;100.00;97117.50;5090150;28;20032;-45
2022/12/09 08:06:47;;;;;;;11.43;8.35;;;;;;;5.23;100.00;97127.72;5093860;28;20031;-45
2022/12/09 08:09:13;;;;;;;18.05;10.80;;;;;;;5.23;100.00;97117.31;5093929;28;20032;-45
2022/12/09 08:11:39;;;;;;;16.13;10.30;;;;;;;5.21;100.00;97119.31;5095180;28;20074;-45
2022/12/09 08:14:06;;;;;;;20.13;13.20;;;;;;;5.22;100.00;97120.16;5095150;28;20405;-45
2022/12/09 08:16:32;;;;;;;17.23;8.93;;;;;;;5.34;100.00;97123.72;5093770;28;20024;-45
2022/12/09 08:18:58;;;;;;;15.38;9.25;;;;;;;5.30;100.00;97119.91;5094732;28;20097;-46
2022/12/09 08:21:27;;;;;;;18.30;11.02;;;;;;;5.23;100.00;97125.13;5095052;28;20390;-45
2022/12/09 08:23:54;;;;;;;19.65;12.10;;;;;;;5.21;100.00;97121.94;5095003;28;20565;-46
2022/12/09 08:26:22;;;;;;;16.65;10.63;;;;;;;5.20;100.00;97120.34;5094903;28;20551;-46
2022/12/09 08:28:48;;;;;;;20.35;12.73;;;;;;;5.30;100.00;97125.91;5093556;28;20055;-46
2022/12/09 08:31:16;;;;;;;27.90;11.27;;;;;;;5.35;100.00;97120.91;5094720;28;20020;-46
2022/12/09 08:33:42;;;;;;;15.30;10.35;;;;;;;5.37;100.00;97125.88;5093458;28;20123;-46
2022/12/09 08:36:19;;;;;;;20.33;10.13;;;;;;;5.42;100.00;97126.06;5094706;28;20107;-46
2022/12/09 08:38:45;;;;;;;11.65;8.57;;;;;;;5.40;100.00;97134.09;5093330;28;20060;-46
2022/12/09 08:41:20;;;;;;;19.90;9.80;;;;;;;5.29;100.00;97126.94;5094639;28;20024;-46
2022/12/09 08:43:46;;;;;;;20.58;10.25;;;;;;;5.41;100.00;97121.88;5094589;28;20058;-45
2022/12/09 08:46:13;;;;;;;16.02;9.02;;;;;;;5.68;100.00;97130.38;5093189;28;20044;-47
2022/12/09 08:48:40;;;;;;;17.33;11.25;;;;;;;5.65;100.00;97128.19;5076335;28;20031;-45
2022/12/09 08:51:08;;;;;;;16.80;8.65;;;;;;;5.58;100.00;97130.03;5093096;28;20035;-46
2022/12/09 08:53:33;;;;;;;21.58;8.05;;;;;;;5.58;100.00;97136.03;5093220;28;20026;-46
2022/12/09 08:56:07;;;;;;;10.68;7.70;;;;;;;5.66;100.00;97140.19;5094293;28;20396;-46
2022/12/09 08:58:32;;;;;;;10.48;6.97;;;;;;;5.44;100.00;97141.50;5093084;28;20039;-46
2022/12/09 09:00:58;;;;;;;12.05;7.47;;;;;;;5.32;100.00;97144.72;5092852;28;20028;-45
2022/12/09 09:03:24;;;;;;;13.77;6.88;;;;;;;5.28;100.00;97151.31;5092938;28;20028;-45
2022/12/09 09:05:49;;;;;;;9.90;6.63;;;;;;;5.30;100.00;97153.72;5094413;28;20055;-45
2022/12/09 09:08:15;;;;;;;15.68;7.78;;;;;;;5.29;100.00;97147.75;5092836;28;20397;-45
2022/12/09 09:10:41;;;;;;;19.05;7.88;;;;;;;5.30;100.00;97151.94;5092837;28;20090;-45
2022/12/09 09:13:06;;;;;;;14.73;6.50;;;;;;;5.48;100.00;97148.66;5092850;28;20442;-45
2022/12/09 09:15:32;;;;;;;11.00;6.68;;;;;;;5.51;100.00;97156.06;5092653;28;20409;-45
2022/12/09 09:17:58;;;;;;;24.80;7.80;;;;;;;5.22;100.00;97153.97;5092578;28;20105;-45
2022/12/09 09:20:23;;;;;;;11.13;5.55;;;;;;;5.02;100.00;97159.19;5093622;28;20533;-45
2022/12/09 09:22:49;;;;;;;12.88;6.13;;;;;;;5.22;100.00;97157.34;5092528;28;20103;-45
2022/12/09 09:25:15;;;;;;;13.80;6.45;;;;;;;5.30;100.00;97162.31;5093853;28;20393;-44
2022/12/09 09:27:40;;;;;;;62.97;10.57;;;;;;;5.17;100.00;97157.97;5093775;28;20031;-45
2022/12/09 09:30:08;;;;;;;12.93;7.35;;;;;;;4.94;100.00;97161.00;5092324;28;20039;-45
2022/12/09 09:32:34;;;;;;;12.75;8.68;;;;;;;5.06;100.00;97158.56;5092348;28;20031;-45
2022/12/09 09:34:59;;;;;;;8.48;5.90;;;;;;;5.09;100.00;97162.56;5092266;28;20020;-45
2022/12/09 09:37:25;;;;;;;13.50;6.00;;;;;;;4.98;100.00;97166.59;5093567;28;20099;-45
2022/12/09 09:39:51;;;;;;;7.75;5.53;;;;;;;5.07;100.00;97160.19;5092142;28;20052;-45
2022/12/09 09:42:23;;;;;;;11.50;6.82;;;;;;;5.20;100.00;97164.56;5092430;28;20506;-45
2022/12/09 09:44:52;;;;;;;9.38;6.60;;;;;;;5.34;100.00;97167.94;5092158;28;20028;-47
2022/12/09 09:47:41;;;;;;;11.80;5.90;;;;;;;5.42;100.00;97175.50;5092074;28;20444;-48
2022/12/09 09:50:34;;;;;;;25.25;14.55;;;;;;;5.37;100.00;97180.50;5092021;28;20115;-48
2022/12/09 09:53:12;;;;;;;20.50;14.85;;;;;;;5.19;100.00;97173.34;5093321;28;20020;-48
2022/12/09 09:55:51;;;;;;;24.80;17.98;;;;;;;5.35;100.00;97169.50;5093295;28;20039;-48
2022/12/09 09:58:48;;;;;;;15.23;9.65;;;;;;;5.53;100.00;97177.50;5093248;28;20410;-48
2022/12/09 10:01:17;;;;;;;13.77;7.00;;;;;;;5.73;100.00;97174.00;5093188;28;20107;-48
2022/12/09 10:03:54;;;;;;;18.27;7.25;;;;;;;5.68;100.00;97179.03;5091713;28;20028;-48
2022/12/09 10:06:26;;;;;;;10.45;6.55;;;;;;;5.74;100.00;97176.41;5091720;28;20494;-48
2022/12/09 10:09:09;;;;;;;13.68;6.93;;;;;;;5.82;100.00;97177.19;5092932;28;20543;-47
2022/12/09 10:11:47;;;;;;;8.98;6.97;;;;;;;6.03;100.00;97181.31;5093012;28;20936;-47
2022/12/09 10:14:27;;;;;;;24.95;8.45;;;;;;;6.00;100.00;97175.50;5093160;28;20486;-47
2022/12/09 10:17:24;;;;;;;12.00;6.63;;;;;;;5.77;100.00;97178.56;5093119;28;20447;-48
2022/12/09 10:19:56;;;;;;;12.27;6.95;;;;;;;5.89;100.00;97167.53;5092496;28;20044;-47
2022/12/09 10:22:30;;;;;;;28.52;24.98;;;;;;;5.96;100.00;97165.72;5093017;28;20028;-47
2022/12/09 10:24:58;;;;;;;20.73;13.40;;;;;;;6.06;100.00;97163.47;5091394;28;20093;-47
2022/12/09 10:27:30;;;;;;;25.58;19.55;;;;;;;6.14;100.00;97165.03;5091286;28;20028;-47
2022/12/09 10:30:01;;;;;;;76.45;12.77;;;;;;;6.20;100.00;97164.97;5092112;28;20498;-47
2022/12/09 10:32:33;;;;;;;17.85;8.40;;;;;;;5.89;100.00;97163.09;5092580;28;20107;-47
2022/12/09 10:34:59;;;;;;;12.25;6.57;;;;;;;5.87;100.00;97159.13;5092514;28;20043;-48
2022/12/09 10:37:29;;;;;;;9.32;5.95;;;;;;;5.86;100.00;97158.34;5091250;28;20460;-47
2022/12/09 10:40:12;;;;;;;10.13;6.00;;;;;;;5.55;100.00;97157.25;5092288;28;20112;-47
2022/12/09 10:45:42;;;;;;;14.27;10.05;;;;;;;5.71;100.00;97155.97;5092648;28;20508;-47
2022/12/09 10:48:28;;;;;;;15.77;12.05;;;;;;;5.96;100.00;97150.91;5091064;28;20024;-47
2022/12/09 10:50:55;;;;;;;;;;;;;;;6.23;100.00;97150.72;5092932;28;20052;-47
2022/12/09 10:53:20;;;;;;;25.63;18.63;;;;;;;6.19;100.00;97154.75;5092247;28;19908;-47
2022/12/09 10:55:51;;;;;;;24.33;15.73;;;;;;;6.05;100.00;97145.44;5092131;28;20022;-47
2022/12/09 10:58:23;;;;;;;21.55;16.42;;;;;;;6.05;100.00;97142.84;5092124;28;20042;-47
2022/12/09 11:00:59;;;;;;;15.82;12.70;;;;;;;6.16;100.00;97148.19;5091969;28;20016;-47
2022/12/09 11:03:37;;;;;;;12.00;7.88;;;;;;;6.07;100.00;97140.81;5092395;28;20046;-47
2022/12/09 11:06:29;;;;;;;15.32;9.88;;;;;;;6.02;100.00;97140.63;5092218;28;20097;-47
2022/12/09 11:09:00;;;;;;;8.35;7.03;;;;;;;6.28;100.00;97137.88;5091596;28;20115;-47
2022/12/09 11:11:45;;;;;;;11.70;7.90;;;;;;;6.44;100.00;97141.78;5092060;28;20375;-47
2022/12/09 11:14:21;;;;;;;39.65;11.77;;;;;;;6.64;100.00;97143.44;5092012;28;20513;-47
2022/12/09 11:16:49;;;;;;;13.65;8.23;;;;;;;6.56;100.00;97140.09;5092203;28;20028;-47
2022/12/09 11:19:15;;;;;;;17.75;11.43;;;;;;;6.51;100.00;97142.53;5091655;28;20398;-47
2022/12/09 11:21:40;;;;;;;16.27;8.32;;;;;;;6.65;100.00;97140.63;5092006;28;20036;-47
2022/12/09 11:24:20;;;;;;;48.47;12.38;;;;;;;6.88;100.00;97140.03;5090646;28;20158;-47
2022/12/09 11:26:46;;;;;;;14.05;6.35;;;;;;;6.91;100.00;97136.97;5091910;28;20035;-47
2022/12/09 11:29:17;;;;;;;31.02;8.10;;;;;;;7.01;100.00;97133.88;5090503;28;20440;-47
2022/12/09 11:31:44;;;;;;;8.05;5.55;;;;;;;6.98;100.00;97140.34;5091803;28;20024;-47